Flight Track Log - Related Links

Times and Time Zones

All times are in EDT time to prevent confusion due to time zone crossing. See the NKS212 flight status page for this flight to view local times or setup timezone preferences in your user account.

Time Position Orientation Groundspeed Altitude Reporting Facility
EDT Latitude Longitude Course Direction KTS MPH feet Rate Location/Type
Mon 04:17:58 PM 18.2883 -65.2179 288° West 300 345 8,200  Level FlightAware ADS-B (TNCM / SXM)
Mon 04:18:10 PM 18.2919 -65.2304 286° West 300 345 8,800 2,889 Climbing FlightAware ADS-B (TNCM / SXM)
Mon 04:18:25 PM 18.2971 -65.2511 284° West 304 350 9,500 2,151 Climbing FlightAware ADS-B (TNCM / SXM)
Mon 04:19:03 PM 18.3094 -65.3134 282° West 337 388 10,700 1,500 Climbing FlightAware ADS-B (TNCM / SXM)
Mon 04:19:29 PM 18.3176 -65.3547 284° West 365 420 11,100 1,200 Climbing FlightAware ADS-B (TNCM / SXM)
Mon 04:19:38 PM 18.3238 -65.3711 296° West 371 427 11,400 2,250 Climbing FlightAware ADS-B (TNCM / SXM)
Mon 04:19:53 PM 18.3380 -65.3919 309° West 371 427 12,000 2,571 Climbing FlightAware ADS-B (TNCM / SXM)
Mon 04:20:20 PM 18.3683 -65.4325 309° West 373 429 13,200 2,522 Climbing FlightAware ADS-B (TNCM / SXM)
Mon 04:21:02 PM 18.4118 -65.4923 307° West 384 442 14,900 2,164 Climbing FlightAware ADS-B (TNCM / SXM)
Mon 04:22:22 PM 18.4995 -65.6154 307° West 407 468 17,600 1,863 Climbing FlightAware ADS-B (TNCM / SXM)
Mon 04:25:10 PM 18.6943 -65.8903 307° West 425 489 22,600 1,723 Climbing FlightAware ADS-B (TNCM / SXM)
Mon 04:25:37 PM 18.7251 -65.9337 307° West 431 496 23,200 1,524 Climbing FlightAware ADS-B (TNCM / SXM)
Mon 04:26:13 PM 18.7674 -65.9936 307° West 432 497 24,200 1,541 Climbing FlightAware ADS-B (TNCM / SXM)
Mon 04:26:51 PM 18.8156 -66.0617 307° West 436 502 25,100 1,543 Climbing FlightAware ADS-B (TNCM / SXM)
Mon 04:27:23 PM 18.8545 -66.1166 307° West 436 502 26,000 1,475 Climbing FlightAware ADS-B (TNCM / SXM)
Mon 04:27:52 PM 18.8897 -66.1663 307° West 439 505 26,600 1,158 Climbing FlightAware ADS-B (TNCM / SXM)
Mon 04:28:20 PM 18.9240 -66.2150 307° West 444 511 27,100 1,158 Climbing FlightAware ADS-B (TNCM / SXM)
Mon 04:28:49 PM 18.9534 -66.2567 307° West 446 513 27,700 1,125 Climbing FlightAware ADS-B (TNCM / SXM)
Mon 04:29:24 PM 18.9936 -66.3136 307° West 449 517 28,300 1,029 Climbing FlightAware ADS-B (TNCM / SXM)
Mon 04:29:59 PM 19.0463 -66.3886 307° West 453 521 28,900 1,185 Climbing FlightAware ADS-B (TNCM / SXM)
Mon 04:30:45 PM 19.1049 -66.4720 307° West 459 528 29,900 1,146 Climbing FlightAware ADS-B (TNCM / SXM)
Mon 04:31:28 PM 19.1439 -66.5276 307° West 459 528 30,600 1,119 Climbing FlightAware ADS-B (TNCM / SXM)
Mon 04:32:43 PM 19.2333 -66.6667 307° West 450 518 32,100 1,324 Climbing San Juan Center
Mon 04:33:44 PM 19.3167 -66.7667 311° West 460 529 33,600 1,388 Climbing San Juan Center
Mon 04:34:44 PM 19.3833 -66.8667 305° West 450 518 34,900 1,210 Climbing San Juan Center
Mon 04:35:43 PM 19.4667 -66.9833 307° West 450 518 36,000 550 Climbing San Juan Center
Mon 04:36:44 PM 19.5333 -67.0833 305° West 450 518 36,000  Level San Juan Center
Mon 04:37:44 PM 19.6000 -67.2000 301° West 450 518 36,000  Level San Juan Center
Mon 04:38:44 PM 19.6833 -67.3000 312° West 450 518 36,000  Level San Juan Center
Mon 04:39:44 PM 19.7500 -67.4000 305° West 450 518 36,000  Level San Juan Center
Mon 04:40:44 PM 19.8333 -67.5167 307° West 450 518 36,000  Level San Juan Center
Mon 04:41:45 PM 19.9000 -67.6167 305° West 450 518 36,000  Level San Juan Center
Mon 04:42:45 PM 19.9833 -67.7333 307° West 450 518 36,000  Level San Juan Center
Mon 04:43:45 PM 20.0500 -67.8333 305° West 450 518 36,000  Level San Juan Center
Mon 04:44:45 PM 20.1333 -67.9500 307° West 460 529 36,000  Level San Juan Center
Mon 04:45:45 PM 20.2000 -68.0500 305° West 450 518 36,000  Level San Juan Center
Mon 04:46:51 PM 20.3031 -68.1869 309° West 455 524 36,000  Level Miami Center
Mon 04:47:53 PM 20.3744 -68.2956 305° West 453 521 36,000  Level Miami Center
Mon 04:48:55 PM 20.4447 -68.4058 304° West 453 521 36,000  Level Miami Center
Mon 04:49:57 PM 20.5119 -68.5189 302° West 453 521 36,000  Level Miami Center
Mon 04:50:58 PM 20.5847 -68.6564 300° West 451 519 36,000  Level Miami Center
Mon 04:52:00 PM 20.6489 -68.7706 301° West 451 519 36,000  Level Miami Center
Mon 04:53:02 PM 20.7125 -68.8844 301° West 451 519 36,000  Level Miami Center
Mon 04:54:04 PM 20.7778 -68.9983 302° West 451 519 36,000  Level Miami Center
Mon 04:55:06 PM 20.8425 -69.1119 301° West 451 519 36,000  Level Miami Center
Mon 04:56:08 PM 20.9072 -69.2256 301° West 450 518 36,000  Level Miami Center
Mon 04:57:10 PM 20.9719 -69.3386 302° West 450 518 36,000  Level Miami Center
Mon 04:58:11 PM 21.0486 -69.4758 301° West 450 518 36,000  Level Miami Center
Mon 04:59:14 PM 21.1125 -69.5894 301° West 450 518 36,000  Level Miami Center
Mon 05:00:15 PM 21.1761 -69.7028 301° West 448 516 36,000  Level Miami Center
Mon 05:01:17 PM 21.2394 -69.8164 301° West 448 516 36,000  Level Miami Center
Mon 05:02:18 PM 21.3019 -69.9286 301° West 444 511 36,000  Level Miami Center
Mon 05:03:20 PM 21.3650 -70.0414 301° West 443 510 36,000  Level Miami Center
Mon 05:04:22 PM 21.4419 -70.1786 301° West 443 510 36,000  Level Miami Center
Mon 05:05:24 PM 21.5053 -70.2922 301° West 444 511 36,000  Level Miami Center
Mon 05:06:26 PM 21.5683 -70.4053 301° West 444 511 36,000  Level Miami Center
Mon 05:07:27 PM 21.6311 -70.5208 300° West 444 511 36,000  Level Miami Center
Mon 05:08:29 PM 21.6947 -70.6344 301° West 444 511 36,000  Level Miami Center
Mon 05:09:31 PM 21.7581 -70.7481 301° West 444 511 36,000  Level Miami Center
Mon 05:10:33 PM 21.8336 -70.8850 301° West 444 511 36,000  Level Miami Center
Mon 05:11:35 PM 21.8958 -70.9994 300° West 445 512 36,000  Level Miami Center
Mon 05:12:37 PM 21.9583 -71.1139 301° West 445 512 36,000  Level Miami Center
Mon 05:13:38 PM 22.0211 -71.2286 301° West 445 512 36,000  Level Miami Center
Mon 05:14:40 PM 22.0847 -71.3442 301° West 445 512 36,000  Level Miami Center
Mon 05:15:42 PM 22.1486 -71.4614 300° West 448 516 36,000  Level Miami Center
Mon 05:16:44 PM 22.2244 -71.6019 300° West 450 518 36,000  Level Miami Center
Mon 05:17:46 PM 22.2892 -71.7181 301° West 451 519 36,000  Level Miami Center
Mon 05:18:48 PM 22.3503 -71.8367 299° West 451 519 36,000  Level Miami Center
Mon 05:19:50 PM 22.4144 -71.9531 301° West 451 519 36,000  Level Miami Center
Mon 05:20:51 PM 22.4769 -72.0700 300° West 451 519 36,000  Level Miami Center
Mon 05:21:53 PM 22.5400 -72.1861 300° West 451 519 36,000  Level Miami Center
Mon 05:22:55 PM 22.6017 -72.3025 300° West 449 517 36,000  Level Miami Center
Mon 05:23:57 PM 22.6772 -72.4422 300° West 449 517 36,000  Level Miami Center
Mon 05:24:59 PM 22.7389 -72.5597 300° West 449 517 36,000  Level Miami Center
Mon 05:26:00 PM 22.8022 -72.6753 301° West 448 516 36,000  Level Miami Center
Mon 05:27:02 PM 22.8625 -72.7919 299° West 448 516 36,000  Level Miami Center
Mon 05:28:04 PM 22.9258 -72.9083 301° West 448 516 36,000  Level Miami Center
Mon 05:29:06 PM 22.9864 -73.0256 299° West 447 514 36,000  Level Miami Center
Mon 05:30:08 PM 23.0578 -73.1594 300° West 447 514 36,000  Level Miami Center
Mon 05:31:10 PM 23.1178 -73.2767 299° West 446 513 36,000  Level Miami Center
Mon 05:32:11 PM 23.1794 -73.3917 300° West 444 511 36,000  Level Miami Center
Mon 05:33:13 PM 23.2253 -73.5144 292° West 441 507 36,000  Level Miami Center
Mon 05:34:15 PM 23.2492 -73.6461 281° West 441 507 36,000  Level Miami Center
Mon 05:35:17 PM 23.2769 -73.7756 283° West 441 507 36,000  Level Miami Center
Mon 05:36:19 PM 23.3125 -73.9306 284° West 441 507 36,000  Level Miami Center
Mon 05:37:21 PM 23.3464 -74.0578 286° West 441 507 36,000  Level Miami Center
Mon 05:38:22 PM 23.3767 -74.1872 284° West 441 507 36,000  Level Miami Center
Mon 05:39:24 PM 23.4075 -74.3172 285° West 443 510 36,000  Level Miami Center
Mon 05:40:26 PM 23.4383 -74.4478 284° West 445 512 36,000  Level Miami Center
Mon 05:41:28 PM 23.4719 -74.5764 286° West 444 511 36,000  Level Miami Center
Mon 05:42:30 PM 23.5028 -74.7067 284° West 444 511 36,000  Level Miami Center
Mon 05:43:31 PM 23.5414 -74.8636 285° West 446 513 36,000  Level Miami Center
Mon 05:44:33 PM 23.5706 -74.9950 284° West 446 513 36,000  Level Miami Center
Mon 05:45:35 PM 23.5942 -75.1283 281° West 447 514 36,000  Level Miami Center
Mon 05:46:37 PM 23.6167 -75.2603 281° West 445 512 36,000  Level Miami Center
Mon 05:47:38 PM 23.6378 -75.3894 280° West 437 503 36,000  Level Miami Center
Mon 05:48:40 PM 23.6628 -75.5172 282° West 437 503 36,000  Level Miami Center
Mon 05:49:42 PM 23.6858 -75.6461 281° West 436 502 36,000  Level Miami Center
Mon 05:50:44 PM 23.7147 -75.7997 282° West 436 502 36,000  Level Miami Center
Mon 05:51:45 PM 23.7386 -75.9311 281° West 442 509 36,000  Level Miami Center
Mon 05:52:59 PM 23.7706 -76.0622 285° West 445 512 36,000  Level Miami Center
Mon 05:54:01 PM 23.8142 -76.2167 287° West 446 513 36,000  Level Miami Center
Mon 05:55:03 PM 23.8814 -76.3239 304° West 430 495 36,000  Level Miami Center
Mon 05:56:05 PM 23.9678 -76.4161 316° Northwest 434 499 36,000  Level Miami Center
Mon 05:57:07 PM 24.0717 -76.5300 315° West 434 499 36,000  Level Miami Center
Mon 05:58:08 PM 24.1611 -76.6286 315° West 440 506 36,000  Level Miami Center
Mon 05:59:10 PM 24.2486 -76.7239 315° West 442 509 36,000  Level Miami Center
Mon 06:00:12 PM 24.3364 -76.8225 314° West 449 517 36,000  Level Miami Center
Mon 06:01:14 PM 24.4336 -76.9292 315° West 448 516 36,000  Level Miami Center
Mon 06:02:15 PM 24.5239 -77.0283 315° West 455 524 36,000  Level Miami Center
Mon 06:03:17 PM 24.6139 -77.1267 315° West 455 524 36,000 48 Level Miami Center
Mon 06:04:19 PM 24.7036 -77.2258 315° West 456 525 36,100  Climbing Miami Center
Mon 06:05:21 PM 24.8017 -77.3347 315° West 455 524 36,000 -48 Descending Miami Center
Mon 06:06:23 PM 24.8894 -77.4342 314° West 454 522 36,000  Level Miami Center
Mon 06:07:24 PM 24.9722 -77.5342 312° West 452 520 36,000  Level Miami Center
Mon 06:08:26 PM 25.0706 -77.6372 317° Northwest 461 531 36,000 -119 Level Miami Center
Mon 06:10:46 PM 25.2787 -77.8673 315° West 453 521 35,600 -1,277 Descending FlightAware ADS-B (KEYW)
Mon 06:14:23 PM 25.5777 -78.2375 299° West 428 493 28,400 -1,966 Descending FlightAware ADS-B (KEYW)
Mon 06:15:39 PM 25.6461 -78.3750 299° West 430 495 26,000 -1,489 Descending Miami Center
Mon 06:16:40 PM 25.7086 -78.4789 304° West 404 465 25,000 -1,171 Descending Miami Center
Mon 06:17:42 PM 25.7608 -78.5761 301° West 370 426 23,600 -1,500 Descending Miami Center
Mon 06:18:44 PM 25.8022 -78.6892 292° West 362 417 21,900 -1,548 Descending Miami Center
Mon 06:19:46 PM 25.8078 -78.7981 273° West 351 404 20,400 -1,366 Descending Miami Center
Mon 06:20:47 PM 25.8122 -78.9042 273° West 347 399 19,100 -1,415 Descending Miami Center
Mon 06:21:49 PM 25.8197 -79.0067 275° West 336 387 17,500 -1,984 Descending Miami Center
Mon 06:22:51 PM 25.8247 -79.1044 273° West 323 372 15,000 -1,951 Descending Miami Center
Mon 06:23:52 PM 25.8228 -79.1997 269° West 308 354 13,500 -1,415 Descending Miami Center
Mon 06:24:54 PM 25.7975 -79.2886 252° West 301 346 12,100 -1,475 Descending Miami Center
Mon 06:25:54 PM 25.7725 -79.3889 255° West 291 335 10,500 -1,933 Descending Miami Center
Mon 06:26:24 PM 25.7764 -79.4331 276° West 289 333 9,200 -2,625 Descending Miami Center
Mon 06:26:58 PM 25.7931 -79.4758 293° West 294 338 7,700 -2,459 Descending Miami Center
Mon 06:27:25 PM 25.8072 -79.5161 291° West 288 331 6,700 -1,770 Descending Miami Center
Mon 06:27:59 PM 25.8228 -79.5569 293° West 285 328 5,900 -689 Descending Miami Center
Mon 06:28:26 PM 25.8381 -79.5969 293° West 287 330 6,000  Climbing Miami Center
Mon 06:29:01 PM 25.8539 -79.6383 293° West 287 330 5,900  Descending Miami Center
Mon 06:29:27 PM 25.8692 -79.6733 296° West 254 292 6,000  Climbing Miami Center
Mon 06:30:03 PM 25.8839 -79.7075 296° West 247 284 5,900  Descending Miami Center
Mon 06:30:28 PM 25.8967 -79.7400 294° West 241 277 6,000  Climbing Miami Center
Mon 06:31:04 PM 25.9122 -79.7753 296° West 243 280 5,900  Descending Miami Center
Mon 06:31:29 PM 25.9281 -79.8119 296° West 239 275 6,000  Climbing Miami Center
Mon 06:32:06 PM 25.9400 -79.8411 294° West 239 275 5,900  Descending Miami Center
Mon 06:32:30 PM 25.9553 -79.8786 294° West 238 274 6,000  Climbing Miami Center
Mon 06:33:07 PM 25.9681 -79.9081 296° West 239 275 5,900  Descending Miami Center
Mon 06:33:30 PM 25.9847 -79.9458 296° West 239 275 6,000  Climbing Miami Center
Mon 06:34:09 PM 26.0119 -79.9800 312° West 237 273 5,900  Descending Miami Center
Mon 06:34:32 PM 26.0297 -80.0000 315° West 239 275 6,000  Climbing Miami Center
Mon 06:35:11 PM 26.0581 -80.0319 315° West 237 273 5,900  Descending Miami Center
Mon 06:35:32 PM 26.0786 -80.0547 315° West 240 276 6,000  Climbing Miami Center
Mon 06:36:12 PM 26.1042 -80.0847 313° West 238 274 5,900  Descending Miami Center
Mon 06:36:33 PM 26.1256 -80.1069 317° Northwest 238 274 6,000  Climbing Miami Center
Mon 06:37:14 PM 26.1472 -80.1394 307° West 237 273 5,900  Descending Miami Center
Mon 06:37:34 PM 26.1594 -80.1700 294° West 237 273 6,000 -295 Climbing Miami Center
Mon 06:38:15 PM 26.1742 -80.2058 295° West 237 273 5,600 -885 Descending Miami Center
Mon 06:38:35 PM 26.1847 -80.2369 291° West 235 270 5,100 -1,161 Descending Miami Center
Mon 06:39:17 PM 26.1872 -80.2758 274° West 235 270 4,400 -1,082 Descending Miami Center
Mon 06:39:36 PM 26.1861 -80.3136 268° West 228 262 4,000 -484 Descending Miami Center
Mon 06:40:19 PM 26.1825 -80.3622 265° West 235 270 3,900  Descending Miami Center
Mon 06:40:37 PM 26.1797 -80.3828 261° West 230 265 4,000  Climbing Miami Center
Mon 06:41:20 PM 26.1778 -80.4278 267° West 217 250 3,900  Descending Miami Center
Mon 06:41:38 PM 26.1753 -80.4497 263° West 211 243 4,000  Climbing Miami Center
Mon 06:42:22 PM 26.1450 -80.4672 207° Southwest 204 235 3,900  Descending Miami Center
Mon 06:42:40 PM 26.1281 -80.4669 179° South 200 230 4,000 -492 Climbing Miami Center
Mon 06:43:23 PM 26.0958 -80.4567 164° South 184 212 3,400 -984 Descending Miami Center
Mon 06:43:41 PM 26.0883 -80.4358 112° Southeast 180 207 3,000 -968 Descending Miami Center
Mon 06:44:25 PM 26.0789 -80.4039 108° East 179 206 2,400 -885 Descending Miami Center
Mon 06:44:42 PM 26.0789 -80.3842 90° East 174 200 2,100 -689 Descending Miami Center
Mon 06:45:26 PM 26.0781 -80.3506 92° East 176 203 1,700 -295 Descending Miami Center
Mon 06:45:43 PM 26.0781 -80.3308 90° East 167 192 1,800  Climbing Miami Center
Mon 06:46:28 PM 26.0781 -80.2997 90° East 168 193 1,700  Descending Miami Center
Mon 06:46:44 PM 26.0769 -80.2819 94° East 157 181 1,800 -295 Climbing Miami Center
Mon 06:47:29 PM 26.0775 -80.2544 89° East 151 174 1,400 -590 Descending Miami Center
Mon 06:47:45 PM 26.0778 -80.2378 89° East 141 162 1,200 -677 Descending Miami Center
Mon 06:48:31 PM 26.0775 -80.2128 91° East 137 158 700 -689 Descending Miami Center
Mon 06:48:46 PM 26.0761 -80.1961 95° East 124 143 500 -800 Descending Miami Center
Mon 06:51:00 PM 26.0667 -80.1500 77° East  Level FlightAware Approximate

Login

Don't have an account? Register now (free) for customized features, flight alerts, and more!